Time;durP1;ratioP1;P1;durP2;ratioP2;P2;SDS_P1;SDS_P2;PMS_P1;PMS_P2;Temp;Humidity;BMP_temperature;BMP_pressure;BME280_temperature;BME280_humidity;BME280_pressure;Samples;Min_cycle;Max_cycle;Signal;HPM_P1;HPM_P2
2022/04/07 00:00:19;;;;;;;21.50;10.50;;;;;;;12.72;41.99;94087.31;4998682;28;20499;-77
2022/04/07 00:02:45;;;;;;;24.35;9.75;;;;;;;12.78;42.16;94096.69;4999990;28;20049;-77
2022/04/07 00:05:11;;;;;;;16.95;8.45;;;;;;;12.86;41.64;94087.56;4982373;28;20119;-77
2022/04/07 00:07:36;;;;;;;19.23;10.15;;;;;;;12.86;41.76;94077.91;4998381;28;20057;-78
2022/04/07 00:10:02;;;;;;;52.78;19.58;;;;;;;12.92;43.69;94083.88;4984752;28;20397;-77
2022/04/07 00:12:29;;;;;;;14.82;8.02;;;;;;;12.93;42.04;94082.84;4999405;28;20120;-77
2022/04/07 00:14:55;;;;;;;30.77;11.65;;;;;;;12.98;42.54;94077.59;4982964;28;20034;-77
2022/04/07 00:17:20;;;;;;;33.55;14.05;;;;;;;12.96;42.72;94055.44;4982597;28;20397;-77
2022/04/07 00:19:46;;;;;;;21.73;10.20;;;;;;;12.99;41.81;94045.25;4998185;28;20045;-77
2022/04/07 00:22:11;;;;;;;37.90;16.80;;;;;;;13.01;43.25;94066.63;4998123;28;20045;-77
2022/04/07 00:24:37;;;;;;;69.45;21.60;;;;;;;12.95;44.09;94056.47;4999475;28;20066;-76
2022/04/07 00:27:03;;;;;;;50.90;20.23;;;;;;;12.94;43.02;94045.25;5005580;28;20061;-78
2022/04/07 00:29:28;;;;;;;36.58;15.52;;;;;;;12.93;43.04;94041.09;5001025;28;20031;-77
2022/04/07 00:31:57;;;;;;;21.65;9.52;;;;;;;12.84;43.22;94037.44;4998460;28;20080;-77
2022/04/07 00:34:22;;;;;;;33.17;11.73;;;;;;;12.80;43.05;94036.41;4998627;28;20114;-78
2022/04/07 00:36:48;;;;;;;46.92;17.27;;;;;;;12.78;43.69;94033.28;4981679;28;20022;-78
2022/04/07 00:39:13;;;;;;;19.63;11.20;;;;;;;12.71;43.73;94030.19;4999374;28;20034;-77
2022/04/07 00:41:39;;;;;;;29.25;13.18;;;;;;;12.65;43.84;94039.03;5015595;28;20049;-77
2022/04/07 00:44:08;;;;;;;33.65;12.05;;;;;;;12.59;43.82;94041.66;4999996;28;20026;-77
2022/04/07 00:46:34;;;;;;;20.48;9.38;;;;;;;12.57;43.61;94043.75;4999115;28;20133;-77
2022/04/07 00:49:00;;;;;;;34.15;11.65;;;;;;;12.52;44.61;94046.34;4998863;28;20031;-77
2022/04/07 00:51:25;;;;;;;29.15;12.20;;;;;;;12.51;44.83;94039.56;4998043;28;20429;-76
2022/04/07 00:53:51;;;;;;;32.20;12.43;;;;;;;12.46;45.27;94036.97;4997533;28;20030;-77
2022/04/07 00:56:16;;;;;;;37.95;14.43;;;;;;;12.42;45.37;94030.72;4997973;28;20039;-77
2022/04/07 00:58:41;;;;;;;28.52;13.25;;;;;;;12.33;45.38;94016.66;4997717;28;20034;-77
2022/04/07 01:01:09;;;;;;;35.17;12.15;;;;;;;12.30;45.54;94017.19;4981539;28;20491;-77
2022/04/07 01:03:34;;;;;;;35.58;16.98;;;;;;;12.19;45.56;94016.38;5005825;28;20090;-77
2022/04/07 01:06:00;;;;;;;35.88;16.40;;;;;;;12.21;45.65;94014.31;4989342;28;20035;-77
2022/04/07 01:08:32;;;;;;;32.83;15.77;;;;;;;12.17;45.98;94012.47;4966465;28;20060;-77
2022/04/07 01:10:57;;;;;;;42.22;18.10;;;;;;;12.11;45.74;94005.72;4984868;28;20035;-77
2022/04/07 01:13:23;;;;;;;51.38;19.73;;;;;;;12.06;46.03;94009.09;5001327;28;20042;-77
2022/04/07 01:15:48;;;;;;;47.53;20.50;;;;;;;12.02;45.84;94001.00;5002993;28;20038;-77
2022/04/07 01:18:14;;;;;;;39.53;15.55;;;;;;;11.95;46.18;93984.84;4988475;28;20034;-76
2022/04/07 01:20:39;;;;;;;39.97;16.05;;;;;;;11.89;46.01;93985.13;5003689;28;20030;-76
2022/04/07 01:23:05;;;;;;;41.38;19.08;;;;;;;11.87;46.58;93979.38;5002107;28;20029;-77
2022/04/07 01:25:30;;;;;;;51.10;20.63;;;;;;;11.89;47.13;93985.13;4984717;28;20418;-76
2022/04/07 01:27:55;;;;;;;63.05;24.27;;;;;;;11.88;46.98;93976.53;5001086;28;20030;-77
2022/04/07 01:30:21;;;;;;;52.03;20.25;;;;;;;11.83;47.29;93971.28;5000675;28;20034;-77
2022/04/07 01:32:52;;;;;;;89.43;33.15;;;;;;;11.85;47.32;93968.44;4984467;28;20100;-78
2022/04/07 01:35:17;;;;;;;71.03;26.55;;;;;;;11.81;47.31;93959.56;5003850;28;20042;-76
2022/04/07 01:37:44;;;;;;;75.25;26.75;;;;;;;11.81;47.18;93955.16;5001431;28;20030;-76
2022/04/07 01:40:11;;;;;;;57.15;23.38;;;;;;;11.74;47.64;93944.19;5015461;28;20057;-75
2022/04/07 01:42:37;;;;;;;55.80;17.05;;;;;;;11.71;47.71;93942.06;4984281;28;20057;-76
2022/04/07 01:45:03;;;;;;;30.13;14.18;;;;;;;11.71;47.71;93926.44;5000493;28;20027;-76
2022/04/07 01:47:29;;;;;;;23.25;9.88;;;;;;;11.71;46.99;93926.44;5000963;28;20473;-76
2022/04/07 01:50:00;;;;;;;45.65;15.80;;;;;;;11.69;48.23;93918.13;5000637;28;20030;-75
2022/04/07 01:52:26;;;;;;;51.85;17.67;;;;;;;11.64;48.26;93915.53;4984431;28;20065;-76
2022/04/07 01:54:52;;;;;;;43.85;15.70;;;;;;;11.62;48.61;93917.59;5008396;28;20469;-75
2022/04/07 01:57:22;;;;;;;35.80;14.35;;;;;;;11.61;48.29;93910.84;4984226;28;20040;-75
2022/04/07 01:59:51;;;;;;;28.75;12.88;;;;;;;11.61;48.07;93906.41;4984456;28;20026;-75
2022/04/07 02:02:16;;;;;;;49.42;14.32;;;;;;;11.58;47.86;93903.56;5000229;28;20069;-76
2022/04/07 02:04:55;;;;;;;41.33;13.68;;;;;;;11.52;47.78;93907.19;5000414;28;20038;-75
2022/04/07 02:07:21;;;;;;;32.55;13.98;;;;;;;11.50;47.98;93898.84;5000693;28;20030;-76
2022/04/07 02:09:46;;;;;;;57.53;15.13;;;;;;;11.39;48.87;93893.66;5000081;28;20057;-77
2022/04/07 02:12:12;;;;;;;58.13;15.23;;;;;;;11.33;49.26;93893.88;5008298;28;20029;-76
2022/04/07 02:14:37;;;;;;;48.05;16.38;;;;;;;11.29;49.10;93893.63;5000264;28;20129;-75
2022/04/07 02:17:03;;;;;;;42.60;15.30;;;;;;;11.27;48.90;93890.50;4983752;28;20038;-76
2022/04/07 02:19:29;;;;;;;24.02;12.63;;;;;;;11.29;48.22;93885.03;4983361;28;20034;-76
2022/04/07 02:21:54;;;;;;;31.70;10.65;;;;;;;11.28;47.99;93881.66;4983052;28;20037;-76
2022/04/07 02:24:20;;;;;;;23.02;11.30;;;;;;;11.28;48.05;93879.06;4999561;28;20030;-77
2022/04/07 02:26:45;;;;;;;25.65;11.15;;;;;;;11.24;48.43;93880.63;5000432;28;20041;-77
2022/04/07 02:29:11;;;;;;;14.68;7.55;;;;;;;11.25;47.64;93876.97;4999930;28;20038;-77
2022/04/07 02:31:36;;;;;;;35.35;12.00;;;;;;;11.21;48.73;93875.91;4983063;28;20037;-77
2022/04/07 02:34:02;;;;;;;30.65;9.30;;;;;;;11.22;48.82;93867.06;5000060;28;20027;-77
2022/04/07 02:36:27;;;;;;;29.63;9.05;;;;;;;11.25;48.48;93868.38;4999171;28;20034;-76
2022/04/07 02:38:52;;;;;;;22.52;7.72;;;;;;;11.15;48.47;93858.72;4984097;28;20057;-77
2022/04/07 02:41:18;;;;;;;20.77;8.60;;;;;;;11.19;48.72;93859.75;4999642;28;20038;-77
2022/04/07 02:43:45;;;;;;;17.38;5.90;;;;;;;11.21;47.75;93849.88;5001447;28;20034;-77
2022/04/07 02:46:11;;;;;;;17.27;7.82;;;;;;;11.21;49.11;93846.50;5006612;28;20129;-77
2022/04/07 02:48:37;;;;;;;30.23;7.75;;;;;;;11.28;48.11;93850.41;5001087;28;20034;-77
2022/04/07 02:51:02;;;;;;;10.57;4.95;;;;;;;11.33;48.04;93842.59;4999589;28;20476;-77
2022/04/07 02:53:28;;;;;;;9.02;5.50;;;;;;;11.34;47.22;93833.75;4999670;28;20026;-75
2022/04/07 02:55:53;;;;;;;14.45;6.10;;;;;;;11.29;47.31;93818.16;4999958;28;20037;-77
2022/04/07 02:58:19;;;;;;;11.05;6.03;;;;;;;11.34;47.40;93812.94;5000207;28;20045;-77
2022/04/07 03:00:44;;;;;;;12.20;6.13;;;;;;;11.42;47.34;93802.03;4983462;28;20493;-75
2022/04/07 03:03:10;;;;;;;8.88;5.10;;;;;;;11.35;47.58;93803.31;4984426;28;20422;-77
2022/04/07 03:05:35;;;;;;;7.70;4.82;;;;;;;11.33;47.51;93803.56;4999246;28;20053;-76
2022/04/07 03:08:01;;;;;;;18.45;5.40;;;;;;;11.48;46.94;93804.63;5000371;28;20084;-75
2022/04/07 03:10:26;;;;;;;9.75;4.63;;;;;;;11.61;46.87;93811.91;4998746;28;20048;-76
2022/04/07 03:12:52;;;;;;;8.48;4.43;;;;;;;11.68;46.45;93804.59;4982839;28;20045;-76
2022/04/07 03:15:17;;;;;;;8.88;4.60;;;;;;;11.63;46.46;93799.38;4982206;28;20041;-76
2022/04/07 03:17:43;;;;;;;7.50;4.70;;;;;;;11.56;46.46;93773.63;5000934;28;20033;-77
2022/04/07 03:20:08;;;;;;;9.90;4.70;;;;;;;11.57;46.63;93775.19;4998629;28;20100;-77
2022/04/07 03:22:34;;;;;;;5.70;4.38;;;;;;;11.45;46.54;93776.50;4999755;28;20680;-76
2022/04/07 03:24:59;;;;;;;6.15;4.00;;;;;;;11.53;46.53;93783.78;5001059;28;20049;-76
2022/04/07 03:27:25;;;;;;;5.60;3.70;;;;;;;11.57;46.63;93772.59;5001340;28;20548;-75
2022/04/07 03:29:50;;;;;;;7.10;4.35;;;;;;;11.57;46.00;93766.59;4998176;28;20031;-75
2022/04/07 03:32:16;;;;;;;10.50;4.10;;;;;;;11.69;46.09;93772.28;5000440;28;20042;-77
2022/04/07 03:34:41;;;;;;;5.60;3.80;;;;;;;11.76;45.90;93772.81;4998935;28;20029;-76
2022/04/07 03:37:07;;;;;;;5.57;3.55;;;;;;;11.70;45.84;93760.81;4998584;28;20045;-82
2022/04/07 03:39:33;;;;;;;7.65;3.75;;;;;;;11.67;45.67;93761.34;4999586;28;20402;-76
2022/04/07 03:41:58;;;;;;;19.75;4.40;;;;;;;11.75;45.50;93755.63;4982579;28;20034;-77
2022/04/07 03:44:24;;;;;;;6.40;3.47;;;;;;;11.74;45.64;93743.66;5000050;28;20413;-76
2022/04/07 03:46:49;;;;;;;7.28;4.13;;;;;;;11.63;46.09;93726.47;4982554;28;20042;-76
2022/04/07 03:49:15;;;;;;;13.02;6.70;;;;;;;11.72;45.69;93719.69;4982179;28;20034;-76
2022/04/07 03:51:40;;;;;;;7.68;3.83;;;;;;;11.66;46.15;93721.53;4999141;28;20498;-77
2022/04/07 03:54:06;;;;;;;9.02;4.32;;;;;;;11.66;46.21;93725.94;4999616;28;20479;-76
2022/04/07 03:56:31;;;;;;;16.90;4.07;;;;;;;11.68;46.37;93719.44;4998482;28;20077;-75
2022/04/07 03:58:58;;;;;;;5.35;3.72;;;;;;;11.59;46.75;93715.81;4999915;28;20034;-75
2022/04/07 04:01:25;;;;;;;6.28;4.57;;;;;;;11.41;46.77;93709.34;4999737;28;20171;-76
2022/04/07 04:03:50;;;;;;;4.93;4.15;;;;;;;11.42;47.18;93716.13;4999470;28;20041;-75
2022/04/07 04:06:16;;;;;;;5.18;4.30;;;;;;;11.33;47.29;93722.88;4999963;28;20053;-75
2022/04/07 04:08:41;;;;;;;6.70;4.57;;;;;;;11.36;47.68;93727.56;4999863;28;20034;-75
2022/04/07 04:11:07;;;;;;;13.48;4.45;;;;;;;11.36;47.49;93737.97;5000518;28;20030;-75
2022/04/07 04:13:33;;;;;;;11.50;4.45;;;;;;;11.36;47.89;93748.38;4999162;28;20077;-75
2022/04/07 04:15:58;;;;;;;10.93;4.68;;;;;;;11.44;47.07;93752.28;4998478;28;20031;-76
2022/04/07 04:18:24;;;;;;;6.25;4.32;;;;;;;11.59;46.93;93756.69;4997216;28;20111;-75
2022/04/07 04:20:49;;;;;;;6.85;4.78;;;;;;;11.71;46.46;93750.19;4997784;28;20033;-76
2022/04/07 04:23:15;;;;;;;14.63;4.38;;;;;;;11.81;46.20;93751.97;4990108;28;20033;-75
2022/04/07 04:25:40;;;;;;;15.13;4.43;;;;;;;11.89;46.23;93741.03;4982058;28;20084;-76
2022/04/07 04:28:06;;;;;;;9.73;4.38;;;;;;;11.84;45.75;93743.63;5001230;28;20026;-76
2022/04/07 04:30:31;;;;;;;11.82;4.57;;;;;;;12.01;45.59;93738.88;4999961;28;20091;-76
2022/04/07 04:32:57;;;;;;;7.68;4.47;;;;;;;12.14;45.59;93739.38;4999536;28;20096;-76
2022/04/07 04:35:22;;;;;;;11.77;5.10;;;;;;;12.25;45.31;93743.50;4981751;28;20508;-76
2022/04/07 04:37:48;;;;;;;5.13;4.40;;;;;;;12.31;45.17;93737.22;4999997;28;20044;-76
2022/04/07 04:40:16;;;;;;;9.68;4.82;;;;;;;12.39;45.00;93738.50;4999090;28;20109;-75
2022/04/07 04:42:42;;;;;;;13.27;5.05;;;;;;;12.44;45.04;93726.19;4982448;28;20509;-76
2022/04/07 04:45:08;;;;;;;9.27;4.55;;;;;;;12.51;44.70;93734.47;5001351;28;20189;-75
2022/04/07 04:47:34;;;;;;;11.90;5.03;;;;;;;12.54;44.67;93726.16;5001657;28;20510;-77
2022/04/07 04:50:00;;;;;;;8.20;5.07;;;;;;;12.62;44.84;93730.78;5001007;28;20038;-76
2022/04/07 04:52:25;;;;;;;8.35;5.05;;;;;;;12.68;44.96;93728.13;4984162;28;20080;-76
2022/04/07 04:54:54;;;;;;;10.88;5.32;;;;;;;12.78;44.62;93736.69;5002727;28;20433;-76
2022/04/07 04:57:20;;;;;;;15.85;5.47;;;;;;;12.87;45.88;93735.06;5000649;28;20030;-76
2022/04/07 04:59:45;;;;;;;11.68;5.88;;;;;;;13.02;46.32;93741.22;4985144;28;20041;-76
2022/04/07 05:02:11;;;;;;;13.43;5.95;;;;;;;13.04;46.51;93745.13;5000740;28;20093;-76
2022/04/07 05:04:36;;;;;;;15.15;6.65;;;;;;;13.03;47.33;93733.13;5002732;28;20026;-76
2022/04/07 05:07:02;;;;;;;18.17;7.72;;;;;;;12.99;46.54;93732.09;5001503;28;20053;-76
2022/04/07 05:09:28;;;;;;;13.93;7.25;;;;;;;12.85;47.29;93723.31;5000933;28;20045;-76
2022/04/07 05:11:54;;;;;;;19.63;8.63;;;;;;;12.66;47.72;93717.19;4984016;28;20033;-76
2022/04/07 05:14:19;;;;;;;19.73;8.02;;;;;;;12.56;48.16;93721.44;5001494;28;20663;-76
2022/04/07 05:16:44;;;;;;;18.73;8.52;;;;;;;12.61;47.87;93737.03;5001425;28;20035;-76
2022/04/07 05:19:10;;;;;;;24.92;8.93;;;;;;;13.02;47.18;93736.78;5000805;28;20034;-76
2022/04/07 05:21:35;;;;;;;37.92;9.32;;;;;;;13.28;46.07;93718.31;5001881;28;20026;-76
2022/04/07 05:24:01;;;;;;;21.40;7.97;;;;;;;13.71;45.06;93722.59;5000895;28;20029;-76
2022/04/07 05:26:26;;;;;;;17.23;8.93;;;;;;;14.13;44.31;93723.69;5000942;28;20469;-76
2022/04/07 05:28:52;;;;;;;24.50;10.05;;;;;;;14.58;44.52;93713.75;5002437;28;20036;-75
2022/04/07 05:31:17;;;;;;;21.83;7.47;;;;;;;14.83;42.61;93707.38;5000917;28;20421;-75
2022/04/07 05:33:43;;;;;;;19.77;7.68;;;;;;;14.74;42.99;93712.47;5002538;28;20453;-74
2022/04/07 05:36:08;;;;;;;20.17;8.95;;;;;;;14.71;43.39;93726.91;5005680;28;20029;-77
2022/04/07 05:38:34;;;;;;;20.27;8.45;;;;;;;14.84;42.82;93730.66;5004244;28;20357;-77
2022/04/07 05:40:59;;;;;;;32.20;8.98;;;;;;;14.91;43.07;93717.97;4984139;28;20048;-77
2022/04/07 05:43:25;;;;;;;18.05;7.50;;;;;;;14.97;42.66;93705.59;5002147;28;20034;-77
2022/04/07 05:45:52;;;;;;;30.25;8.32;;;;;;;14.91;42.90;93717.97;5000888;28;20037;-75
2022/04/07 05:48:17;;;;;;;30.80;10.57;;;;;;;14.87;42.98;93711.75;5000025;28;20041;-77
2022/04/07 05:50:43;;;;;;;24.50;9.95;;;;;;;14.78;43.49;93691.72;4983379;28;20022;-75
2022/04/07 05:53:10;;;;;;;28.70;9.30;;;;;;;14.69;43.01;93692.41;4986662;28;20266;-76
2022/04/07 05:55:35;;;;;;;30.17;10.98;;;;;;;14.63;43.07;93677.81;4983454;28;20113;-75
2022/04/07 05:58:02;;;;;;;35.72;10.45;;;;;;;14.66;43.12;93677.28;5007812;28;20164;-77
2022/04/07 06:00:28;;;;;;;24.92;12.38;;;;;;;14.64;43.16;93682.00;5002364;28;20092;-77
2022/04/07 06:02:53;;;;;;;49.88;14.05;;;;;;;14.71;43.44;93681.63;5001549;28;20470;-75
2022/04/07 06:05:19;;;;;;;32.03;9.90;;;;;;;14.70;42.58;93664.38;5001929;28;20214;-76
2022/04/07 06:07:45;;;;;;;22.58;9.35;;;;;;;14.65;42.62;93664.47;4984723;28;20970;-77
2022/04/07 06:10:10;;;;;;;14.55;7.28;;;;;;;14.76;41.73;93678.94;5002416;28;20048;-77
2022/04/07 06:12:38;;;;;;;19.48;9.05;;;;;;;14.71;41.69;93668.56;4987272;28;20076;-77
2022/04/07 06:15:04;;;;;;;26.33;8.70;;;;;;;14.50;42.11;93665.47;5001093;28;20040;-75
2022/04/07 06:17:38;;;;;;;22.38;8.25;;;;;;;14.36;41.70;93667.97;5000432;28;20212;-75
2022/04/07 06:20:06;;;;;;;12.20;7.40;;;;;;;14.22;41.28;93669.75;5000008;28;20548;-77
2022/04/07 06:22:31;;;;;;;29.77;9.90;;;;;;;14.07;41.74;93672.53;5001145;28;20180;-77
2022/04/07 06:24:57;;;;;;;25.95;6.97;;;;;;;13.81;41.34;93670.22;4999624;28;20455;-76
2022/04/07 06:27:23;;;;;;;14.52;6.25;;;;;;;13.68;41.09;93655.25;4985088;28;20030;-77
2022/04/07 06:29:48;;;;;;;10.98;4.97;;;;;;;13.57;41.28;93653.03;5001611;28;20538;-75
2022/04/07 06:32:14;;;;;;;10.63;5.43;;;;;;;13.63;41.28;93657.13;4982757;28;20038;-75
2022/04/07 06:34:39;;;;;;;24.10;6.28;;;;;;;13.54;41.22;93651.75;4999574;28;20045;-75
2022/04/07 06:37:04;;;;;;;19.80;5.80;;;;;;;13.35;41.74;93656.13;4984613;28;20580;-75
2022/04/07 06:39:30;;;;;;;18.83;7.40;;;;;;;13.47;41.66;93659.13;4983955;28;20027;-76
2022/04/07 06:41:55;;;;;;;15.93;6.18;;;;;;;13.59;41.20;93648.28;4998745;28;20026;-77
2022/04/07 06:44:21;;;;;;;16.48;7.07;;;;;;;13.69;40.65;93656.81;5001064;28;20026;-76
2022/04/07 06:46:46;;;;;;;18.20;7.13;;;;;;;13.88;40.41;93661.28;4999202;28;20037;-76
2022/04/07 06:49:12;;;;;;;13.68;5.68;;;;;;;13.90;40.64;93659.16;4999293;28;20034;-76
2022/04/07 06:51:37;;;;;;;14.45;5.50;;;;;;;14.02;40.48;93652.47;5000283;28;20038;-76
2022/04/07 06:54:03;;;;;;;10.35;5.38;;;;;;;14.01;40.05;93658.78;4999413;28;20030;-76
2022/04/07 06:56:28;;;;;;;13.20;6.07;;;;;;;14.10;40.07;93653.69;4983307;28;20481;-76
2022/04/07 06:58:54;;;;;;;9.32;5.38;;;;;;;14.23;40.07;93649.59;4999968;28;20037;-76
2022/04/07 07:01:20;;;;;;;14.30;5.38;;;;;;;14.25;39.68;93650.09;5002178;28;20037;-76
2022/04/07 07:03:45;;;;;;;20.75;5.75;;;;;;;14.23;39.53;93652.22;5001655;28;20105;-76
2022/04/07 07:06:11;;;;;;;22.42;6.15;;;;;;;14.13;40.51;93637.44;5000407;28;20044;-76
2022/04/07 07:08:36;;;;;;;19.88;6.68;;;;;;;14.06;40.31;93634.41;5000417;28;20030;-77
2022/04/07 07:11:02;;;;;;;18.40;6.80;;;;;;;14.19;40.53;93646.00;4983350;28;20096;-76
2022/04/07 07:13:27;;;;;;;11.10;6.00;;;;;;;14.40;39.87;93650.66;4982739;28;20038;-76
2022/04/07 07:15:53;;;;;;;13.70;6.00;;;;;;;14.39;39.78;93651.72;4999364;28;20034;-76
2022/04/07 07:18:18;;;;;;;36.38;6.85;;;;;;;14.53;40.20;93656.28;4984448;28;20201;-76
2022/04/07 07:20:44;;;;;;;19.08;6.25;;;;;;;14.62;39.33;93651.94;4983967;28;20541;-76
2022/04/07 07:23:09;;;;;;;20.38;7.00;;;;;;;14.42;39.62;93638.06;4990560;28;20038;-76
2022/04/07 07:25:35;;;;;;;15.45;6.30;;;;;;;14.21;40.80;93646.50;5000717;28;20358;-77
2022/04/07 07:28:01;;;;;;;17.25;7.03;;;;;;;14.23;40.56;93645.16;4995308;28;20034;-77
2022/04/07 07:30:28;;;;;;;20.83;6.28;;;;;;;14.21;40.24;93639.44;4983267;28;20520;-76
2022/04/07 07:32:54;;;;;;;13.18;6.50;;;;;;;14.15;40.51;93635.31;4999299;28;20038;-76
2022/04/07 07:35:20;;;;;;;16.60;6.45;;;;;;;14.09;40.52;93624.16;4999281;28;20288;-75
2022/04/07 07:38:01;;;;;;;11.10;5.85;;;;;;;14.18;40.17;93621.69;4998805;28;20394;-75
2022/04/07 07:40:28;;;;;;;10.38;6.15;;;;;;;13.99;40.53;93615.66;4999228;28;20037;-76
2022/04/07 07:42:57;;;;;;;15.63;6.13;;;;;;;14.29;40.31;93611.84;4999784;28;20037;-75
2022/04/07 07:45:23;;;;;;;16.35;6.60;;;;;;;14.60;39.63;93614.81;4998449;28;20513;-75
2022/04/07 07:47:49;;;;;;;15.10;7.30;;;;;;;14.62;39.34;93595.16;4999026;28;20025;-75
2022/04/07 07:50:14;;;;;;;15.85;6.65;;;;;;;14.59;39.50;93600.97;4998661;28;20190;-75
2022/04/07 07:52:39;;;;;;;26.63;6.75;;;;;;;14.62;39.42;93599.59;4997575;28;20038;-75
2022/04/07 07:55:05;;;;;;;15.77;8.00;;;;;;;14.77;39.19;93606.44;4982710;28;20045;-75
2022/04/07 07:57:31;;;;;;;22.38;7.63;;;;;;;14.90;39.39;93600.47;4981939;28;20034;-75
2022/04/07 07:59:57;;;;;;;13.70;6.30;;;;;;;14.94;38.93;93596.97;4998749;28;20045;-75
2022/04/07 08:02:23;;;;;;;28.30;6.45;;;;;;;14.78;39.13;93585.22;4981930;28;20038;-75
2022/04/07 08:04:48;;;;;;;10.90;6.68;;;;;;;14.96;39.83;93568.69;4999814;28;20029;-75
2022/04/07 08:07:14;;;;;;;21.40;6.78;;;;;;;15.34;39.52;93568.53;4982960;28;20026;-75
2022/04/07 08:09:39;;;;;;;14.23;6.05;;;;;;;15.71;38.38;93566.78;4999555;28;20467;-75
2022/04/07 08:12:04;;;;;;;15.38;6.65;;;;;;;15.79;38.07;93574.75;4998056;28;20026;-76
2022/04/07 08:14:30;;;;;;;24.67;7.50;;;;;;;16.02;37.85;93572.16;4998114;28;20042;-75
2022/04/07 08:16:56;;;;;;;15.70;6.25;;;;;;;16.14;37.14;93562.72;4999167;28;20121;-75
2022/04/07 08:19:22;;;;;;;11.07;6.18;;;;;;;16.25;36.73;93567.72;4997272;28;20033;-75
2022/04/07 08:21:47;;;;;;;12.27;6.90;;;;;;;15.93;37.16;93569.44;4981531;28;20046;-74
2022/04/07 08:24:15;;;;;;;13.90;5.65;;;;;;;15.73;37.25;93549.69;4999549;28;20841;-75
2022/04/07 08:26:41;;;;;;;16.52;6.93;;;;;;;15.56;37.66;93547.66;5000466;28;20119;-74
2022/04/07 08:29:06;;;;;;;21.90;6.18;;;;;;;15.86;37.00;93555.97;4983536;28;20038;-74
2022/04/07 08:31:32;;;;;;;9.95;5.28;;;;;;;16.12;36.94;93556.22;4997857;28;20037;-74
2022/04/07 08:33:57;;;;;;;13.23;5.88;;;;;;;16.02;36.54;93549.34;4998668;28;20038;-74
2022/04/07 08:36:22;;;;;;;10.65;5.32;;;;;;;16.24;36.28;93547.81;4998309;28;20033;-75
2022/04/07 08:38:48;;;;;;;12.93;5.70;;;;;;;16.23;35.96;93546.25;4998247;28;20053;-75
2022/04/07 08:41:14;;;;;;;12.20;5.82;;;;;;;16.25;36.02;93547.50;4997825;28;20034;-75
2022/04/07 08:43:39;;;;;;;16.38;5.28;;;;;;;15.86;36.56;93550.75;4982566;28;20041;-75
2022/04/07 08:46:12;;;;;;;13.60;5.22;;;;;;;15.60;36.96;93555.72;4998357;28;20033;-76
2022/04/07 08:48:42;;;;;;;9.00;5.07;;;;;;;15.43;36.58;93555.50;4982037;28;20498;-75
2022/04/07 08:51:08;;;;;;;10.25;4.57;;;;;;;14.97;36.71;93538.06;4997805;28;20498;-76
2022/04/07 08:53:33;;;;;;;8.90;4.68;;;;;;;15.08;36.62;93533.41;4997900;28;20084;-75
2022/04/07 08:56:03;;;;;;;13.05;4.45;;;;;;;15.21;37.04;93532.63;4982056;28;20046;-75
2022/04/07 08:58:28;;;;;;;10.13;4.13;;;;;;;15.61;36.25;93537.09;4981491;28;20041;-75
2022/04/07 09:00:54;;;;;;;9.35;4.68;;;;;;;15.92;35.56;93541.69;4981659;28;20030;-75
2022/04/07 09:03:19;;;;;;;13.18;5.25;;;;;;;16.05;35.87;93534.84;4997739;28;20096;-75
2022/04/07 09:05:53;;;;;;;11.45;4.57;;;;;;;16.11;35.45;93533.69;4989154;28;20093;-75
2022/04/07 09:08:18;;;;;;;7.90;4.72;;;;;;;16.36;35.23;93532.31;4996691;28;20042;-75
2022/04/07 09:10:44;;;;;;;6.72;5.45;;;;;;;16.19;35.41;93538.22;4981089;28;20022;-75
2022/04/07 09:13:11;;;;;;;9.10;4.85;;;;;;;16.14;35.67;93533.88;4981439;28;20034;-75
2022/04/07 09:15:37;;;;;;;8.63;5.32;;;;;;;15.52;36.72;93538.81;4981294;28;20062;-76
2022/04/07 09:18:04;;;;;;;19.38;5.88;;;;;;;15.19;37.40;93546.03;4997812;28;20060;-76
2022/04/07 09:20:29;;;;;;;16.45;4.88;;;;;;;14.77;38.06;93551.50;4997967;28;20042;-76
2022/04/07 09:22:58;;;;;;;17.98;5.90;;;;;;;14.80;38.52;93564.00;4988591;28;20041;-76
2022/04/07 09:25:24;;;;;;;17.60;5.88;;;;;;;14.69;38.92;93568.63;4981465;28;20060;-76
2022/04/07 09:27:50;;;;;;;10.15;5.57;;;;;;;14.40;39.84;93563.56;4997725;28;20127;-77
2022/04/07 09:30:16;;;;;;;15.43;5.30;;;;;;;14.17;40.69;93541.72;4999598;28;20442;-78
2022/04/07 09:32:45;;;;;;;14.75;6.35;;;;;;;13.65;41.84;93553.91;4969942;28;20468;-76
2022/04/07 09:35:11;;;;;;;21.45;6.65;;;;;;;13.02;43.94;93554.13;5024100;28;20498;-76
2022/04/07 09:37:38;;;;;;;8.18;5.45;;;;;;;12.74;44.38;93557.53;5001057;28;20083;-76
2022/04/07 09:40:09;;;;;;;11.48;5.70;;;;;;;12.85;44.52;93559.75;5002124;28;20054;-77
2022/04/07 09:42:35;;;;;;;11.10;5.97;;;;;;;12.88;43.97;93553.22;5001038;28;20046;-77
2022/04/07 09:45:01;;;;;;;13.57;5.63;;;;;;;12.95;44.38;93548.44;4984246;28;20046;-77
2022/04/07 09:47:44;;;;;;;11.85;6.10;;;;;;;12.97;44.43;93559.38;4985421;28;20410;-77
2022/04/07 09:50:29;;;;;;;29.45;5.63;;;;;;;13.21;43.72;93573.25;5003051;28;20038;-78
2022/04/07 09:52:55;;;;;;;28.85;6.40;;;;;;;13.45;44.11;93595.94;5005957;28;20129;-77
2022/04/07 09:55:21;;;;;;;30.92;14.00;;;;;;;13.64;45.04;93590.75;5005847;28;20481;-77
2022/04/07 09:57:46;;;;;;;36.05;12.93;;;;;;;13.85;46.64;93588.69;4984716;28;20152;-77
2022/04/07 10:00:12;;;;;;;23.58;11.23;;;;;;;13.90;47.42;93588.63;5000974;28;20030;-77
2022/04/07 10:02:41;;;;;;;30.42;12.00;;;;;;;13.96;48.19;93587.47;4999588;28;20417;-77
2022/04/07 10:05:07;;;;;;;38.17;12.15;;;;;;;13.98;50.56;93580.91;4992952;28;20037;-77
2022/04/07 10:07:32;;;;;;;33.30;7.85;;;;;;;13.89;49.91;93592.28;5001128;28;20076;-77
2022/04/07 10:09:58;;;;;;;15.60;6.70;;;;;;;13.80;50.32;93600.75;4984642;28;20033;-77
2022/04/07 10:12:24;;;;;;;22.17;8.35;;;;;;;13.70;52.07;93600.88;5001812;28;20042;-77
2022/04/07 10:14:49;;;;;;;20.77;9.60;;;;;;;13.57;54.17;93598.94;5001677;28;20041;-77
2022/04/07 10:17:15;;;;;;;18.20;9.27;;;;;;;13.38;55.94;93598.91;4986671;28;20041;-77
2022/04/07 10:19:50;;;;;;;27.30;12.95;;;;;;;13.25;57.28;93586.50;4988739;28;20054;-78
2022/04/07 10:22:30;;;;;;;23.85;9.63;;;;;;;13.11;57.54;93594.19;5004526;28;20089;-77
2022/04/07 10:25:01;;;;;;;17.95;9.55;;;;;;;13.01;59.28;93594.28;5002528;28;20037;-77
2022/04/07 10:27:29;;;;;;;19.80;10.13;;;;;;;13.03;59.96;93589.59;4984604;28;20027;-77
2022/04/07 10:30:24;;;;;;;38.47;13.45;;;;;;;13.10;60.52;93584.81;5000014;28;20042;-76
2022/04/07 10:32:56;;;;;;;33.15;16.10;;;;;;;13.14;61.45;93587.63;5003538;28;20121;-77
2022/04/07 10:35:32;;;;;;;30.52;13.68;;;;;;;13.09;61.53;93585.88;5003106;28;20077;-78
2022/04/07 10:38:01;;;;;;;31.27;17.30;;;;;;;13.05;60.87;93584.88;5003528;28;20026;-77
2022/04/07 10:40:50;;;;;;;55.65;22.75;;;;;;;13.11;62.13;93583.75;5000601;28;20042;-75
2022/04/07 10:43:20;;;;;;;26.90;14.05;;;;;;;13.19;61.99;93582.41;4999448;28;20050;-76
2022/04/07 10:45:52;;;;;;;36.60;19.02;;;;;;;13.26;61.59;93569.78;4998941;28;20057;-76
2022/04/07 10:48:28;;;;;;;18.50;10.88;;;;;;;13.30;59.25;93570.00;4999744;28;20026;-76
2022/04/07 10:51:07;;;;;;;22.10;12.02;;;;;;;13.35;59.75;93567.34;4999283;28;20455;-76
2022/04/07 10:53:38;;;;;;;31.52;14.77;;;;;;;13.53;59.98;93564.00;4999413;28;20041;-76
2022/04/07 10:56:24;;;;;;;37.65;19.77;;;;;;;13.72;60.10;93562.19;4998622;28;20157;-76
2022/04/07 10:58:51;;;;;;;35.92;19.08;;;;;;;13.87;59.10;93557.81;5000961;28;20113;-76
2022/04/07 11:01:30;;;;;;;23.15;9.80;;;;;;;13.97;58.50;93544.59;4983307;28;20030;-76
2022/04/07 11:04:20;;;;;;;14.05;8.38;;;;;;;14.07;58.16;93540.00;5000623;28;20192;-76
2022/04/07 11:07:22;;;;;;;17.40;7.13;;;;;;;14.27;56.93;93538.91;4999074;28;20402;-76
2022/04/07 11:09:53;;;;;;;18.73;6.53;;;;;;;14.43;55.92;93539.47;5006943;28;20050;-76
2022/04/07 11:12:28;;;;;;;16.48;6.38;;;;;;;14.52;54.54;93531.78;4999746;28;20040;-76
2022/04/07 11:15:14;;;;;;;15.43;6.18;;;;;;;14.65;54.79;93538.88;4998336;28;20108;-76
2022/04/07 11:17:43;;;;;;;15.63;5.90;;;;;;;14.81;52.86;93531.56;4988458;28;20111;-75
2022/04/07 11:20:25;;;;;;;19.80;6.40;;;;;;;14.93;52.81;93527.38;5001234;28;20040;-77
2022/04/07 11:23:02;;;;;;;23.60;5.93;;;;;;;14.89;51.14;93526.41;5000649;28;20038;-76